Winslow Lindbergh Regional Airport Winslow US
ICAO: KINW
IATA: INW
Category: Medium
Scheduled Services: No

Elevation: 4941 ft
TransAlt. 18000 ft.

Airport Communications:
ASOS:118.875
ALBUQUERQUE CNTR:124.5
PRESCOTT RDO:122.6
CTAF/UNICOM:122.8

KINW Zoom In..

Runways:

(A) RW 04 length 6236 ft width 75 ft
---- / hdg 45

(B) RW 11 length 7100 ft width 150 ft
---- / hdg 106

(C) RW 22 length 6236 ft width 75 ft
---- / hdg 225

(D) RW 29 length 7100 ft width 150 ft
---- / hdg 286

Location; KINW
Day. 04 / Time. 13.56 Zulu
* Altimeter: 29.93
* Temperature: 04° c. 39.2°f.
* Wind from: 090° Speed 05 kn.
Dewpoint: -03° c.
Visibility: 10 Statute Miles.
Clouds: Clear (automated report).

KINW 041356Z AUTO 09005KT 10SM CLR 04/M03 A2993 RMK AO2 SLP107 T00391028


Wind From 090°
Speed 05 kn.

 
 
jpsmedia worldairports.se 2020   terms of use